sensor_id;sensor_type;location;lat;lon;timestamp;P1;durP1;ratioP1;P2;durP2;ratioP2
26335;SDS011;14047;50.936;4.654;2022-08-21T00:00:23;6.63;;;3.50;;
26335;SDS011;14047;50.936;4.654;2022-08-21T00:02:59;9.30;;;3.55;;
26335;SDS011;14047;50.936;4.654;2022-08-21T00:05:27;10.45;;;3.80;;
26335;SDS011;14047;50.936;4.654;2022-08-21T00:07:53;12.25;;;3.35;;
26335;SDS011;14047;50.936;4.654;2022-08-21T00:10:19;9.43;;;4.13;;
26335;SDS011;14047;50.936;4.654;2022-08-21T00:12:45;10.52;;;3.78;;
26335;SDS011;14047;50.936;4.654;2022-08-21T00:15:12;9.73;;;3.70;;
26335;SDS011;14047;50.936;4.654;2022-08-21T00:17:40;7.47;;;3.30;;
26335;SDS011;14047;50.936;4.654;2022-08-21T00:20:07;7.07;;;3.38;;
26335;SDS011;14047;50.936;4.654;2022-08-21T00:22:34;9.93;;;3.58;;
26335;SDS011;14047;50.936;4.654;2022-08-21T00:25:01;5.78;;;3.03;;
26335;SDS011;14047;50.936;4.654;2022-08-21T00:27:27;9.10;;;3.03;;
26335;SDS011;14047;50.936;4.654;2022-08-21T00:29:53;7.63;;;3.40;;
26335;SDS011;14047;50.936;4.654;2022-08-21T00:32:21;5.38;;;3.30;;
26335;SDS011;14047;50.936;4.654;2022-08-21T00:34:49;5.65;;;3.30;;
26335;SDS011;14047;50.936;4.654;2022-08-21T00:37:14;7.57;;;3.50;;
26335;SDS011;14047;50.936;4.654;2022-08-21T00:39:40;7.63;;;3.85;;
26335;SDS011;14047;50.936;4.654;2022-08-21T00:42:06;6.65;;;3.55;;
26335;SDS011;14047;50.936;4.654;2022-08-21T00:44:32;6.35;;;3.60;;
26335;SDS011;14047;50.936;4.654;2022-08-21T00:46:58;8.30;;;3.22;;
26335;SDS011;14047;50.936;4.654;2022-08-21T00:49:23;5.30;;;3.15;;
26335;SDS011;14047;50.936;4.654;2022-08-21T00:51:56;7.68;;;2.80;;
26335;SDS011;14047;50.936;4.654;2022-08-21T00:54:25;7.40;;;3.15;;
26335;SDS011;14047;50.936;4.654;2022-08-21T00:56:56;8.85;;;3.28;;
26335;SDS011;14047;50.936;4.654;2022-08-21T00:59:25;9.35;;;3.58;;
26335;SDS011;14047;50.936;4.654;2022-08-21T01:01:52;7.68;;;3.03;;
26335;SDS011;14047;50.936;4.654;2022-08-21T01:04:18;11.07;;;3.45;;
26335;SDS011;14047;50.936;4.654;2022-08-21T01:06:45;15.77;;;3.95;;
26335;SDS011;14047;50.936;4.654;2022-08-21T01:09:11;9.20;;;3.42;;
26335;SDS011;14047;50.936;4.654;2022-08-21T01:11:38;7.30;;;3.22;;
26335;SDS011;14047;50.936;4.654;2022-08-21T01:14:04;5.95;;;3.30;;
26335;SDS011;14047;50.936;4.654;2022-08-21T01:16:30;9.32;;;2.72;;
26335;SDS011;14047;50.936;4.654;2022-08-21T01:18:56;4.65;;;3.13;;
26335;SDS011;14047;50.936;4.654;2022-08-21T01:21:22;6.43;;;3.42;;
26335;SDS011;14047;50.936;4.654;2022-08-21T01:23:50;7.78;;;3.60;;
26335;SDS011;14047;50.936;4.654;2022-08-21T01:26:18;6.82;;;3.40;;
26335;SDS011;14047;50.936;4.654;2022-08-21T01:28:59;9.13;;;3.50;;
26335;SDS011;14047;50.936;4.654;2022-08-21T01:31:31;8.73;;;4.00;;
26335;SDS011;14047;50.936;4.654;2022-08-21T01:33:58;7.78;;;3.13;;
26335;SDS011;14047;50.936;4.654;2022-08-21T01:36:24;7.82;;;3.38;;
26335;SDS011;14047;50.936;4.654;2022-08-21T01:38:50;6.82;;;3.65;;
26335;SDS011;14047;50.936;4.654;2022-08-21T01:41:16;6.38;;;3.53;;
26335;SDS011;14047;50.936;4.654;2022-08-21T01:43:42;9.00;;;3.70;;
26335;SDS011;14047;50.936;4.654;2022-08-21T01:46:09;9.13;;;4.25;;
26335;SDS011;14047;50.936;4.654;2022-08-21T01:48:36;8.02;;;3.60;;
26335;SDS011;14047;50.936;4.654;2022-08-21T01:51:02;11.95;;;5.13;;
26335;SDS011;14047;50.936;4.654;2022-08-21T01:53:29;8.70;;;3.58;;
26335;SDS011;14047;50.936;4.654;2022-08-21T01:55:54;9.02;;;3.45;;
26335;SDS011;14047;50.936;4.654;2022-08-21T01:58:20;7.70;;;3.65;;
26335;SDS011;14047;50.936;4.654;2022-08-21T02:00:46;12.38;;;3.88;;
26335;SDS011;14047;50.936;4.654;2022-08-21T02:03:12;10.93;;;3.90;;
26335;SDS011;14047;50.936;4.654;2022-08-21T02:05:37;13.23;;;4.97;;
26335;SDS011;14047;50.936;4.654;2022-08-21T02:08:03;6.53;;;3.53;;
26335;SDS011;14047;50.936;4.654;2022-08-21T02:10:31;6.53;;;3.58;;
26335;SDS011;14047;50.936;4.654;2022-08-21T02:12:57;7.28;;;3.85;;
26335;SDS011;14047;50.936;4.654;2022-08-21T02:15:25;9.40;;;5.28;;
26335;SDS011;14047;50.936;4.654;2022-08-21T02:17:53;9.80;;;4.47;;
26335;SDS011;14047;50.936;4.654;2022-08-21T02:20:24;8.52;;;4.13;;
26335;SDS011;14047;50.936;4.654;2022-08-21T02:22:54;9.15;;;3.60;;
26335;SDS011;14047;50.936;4.654;2022-08-21T02:25:20;8.70;;;3.83;;
26335;SDS011;14047;50.936;4.654;2022-08-21T02:27:47;8.98;;;3.92;;
26335;SDS011;14047;50.936;4.654;2022-08-21T02:30:15;12.88;;;3.85;;
26335;SDS011;14047;50.936;4.654;2022-08-21T02:32:43;10.55;;;3.65;;
26335;SDS011;14047;50.936;4.654;2022-08-21T02:35:10;9.32;;;3.85;;
26335;SDS011;14047;50.936;4.654;2022-08-21T02:37:47;10.70;;;4.03;;
26335;SDS011;14047;50.936;4.654;2022-08-21T02:40:17;10.00;;;3.58;;
26335;SDS011;14047;50.936;4.654;2022-08-21T02:42:44;9.68;;;3.88;;
26335;SDS011;14047;50.936;4.654;2022-08-21T02:45:10;10.15;;;4.35;;
26335;SDS011;14047;50.936;4.654;2022-08-21T02:47:37;11.27;;;3.75;;
26335;SDS011;14047;50.936;4.654;2022-08-21T02:50:03;13.32;;;3.80;;
26335;SDS011;14047;50.936;4.654;2022-08-21T02:52:29;11.05;;;3.90;;
26335;SDS011;14047;50.936;4.654;2022-08-21T02:54:55;10.25;;;3.90;;
26335;SDS011;14047;50.936;4.654;2022-08-21T02:57:21;10.23;;;4.00;;
26335;SDS011;14047;50.936;4.654;2022-08-21T02:59:46;9.55;;;3.65;;
26335;SDS011;14047;50.936;4.654;2022-08-21T03:02:12;7.00;;;4.10;;
26335;SDS011;14047;50.936;4.654;2022-08-21T03:04:38;9.88;;;3.42;;
26335;SDS011;14047;50.936;4.654;2022-08-21T03:07:04;9.85;;;4.20;;
26335;SDS011;14047;50.936;4.654;2022-08-21T03:09:30;9.95;;;3.88;;
26335;SDS011;14047;50.936;4.654;2022-08-21T03:11:55;8.63;;;3.65;;
26335;SDS011;14047;50.936;4.654;2022-08-21T03:14:22;15.23;;;3.88;;
26335;SDS011;14047;50.936;4.654;2022-08-21T03:16:48;10.52;;;3.75;;
26335;SDS011;14047;50.936;4.654;2022-08-21T03:19:14;8.25;;;3.80;;
26335;SDS011;14047;50.936;4.654;2022-08-21T03:21:40;7.78;;;3.28;;
26335;SDS011;14047;50.936;4.654;2022-08-21T03:24:06;8.05;;;3.53;;
26335;SDS011;14047;50.936;4.654;2022-08-21T03:26:32;11.98;;;3.75;;
26335;SDS011;14047;50.936;4.654;2022-08-21T03:28:57;8.55;;;3.53;;
26335;SDS011;14047;50.936;4.654;2022-08-21T03:31:23;19.75;;;3.78;;
26335;SDS011;14047;50.936;4.654;2022-08-21T03:33:53;6.82;;;3.05;;
26335;SDS011;14047;50.936;4.654;2022-08-21T03:36:20;7.38;;;3.65;;
26335;SDS011;14047;50.936;4.654;2022-08-21T03:38:46;12.20;;;3.75;;
26335;SDS011;14047;50.936;4.654;2022-08-21T03:41:11;7.90;;;3.63;;
26335;SDS011;14047;50.936;4.654;2022-08-21T03:43:37;9.23;;;3.30;;
26335;SDS011;14047;50.936;4.654;2022-08-21T03:46:04;7.43;;;3.72;;
26335;SDS011;14047;50.936;4.654;2022-08-21T03:48:31;9.00;;;3.63;;
26335;SDS011;14047;50.936;4.654;2022-08-21T03:50:57;8.05;;;3.33;;
26335;SDS011;14047;50.936;4.654;2022-08-21T03:53:23;6.90;;;3.47;;
26335;SDS011;14047;50.936;4.654;2022-08-21T03:55:50;9.82;;;3.45;;
26335;SDS011;14047;50.936;4.654;2022-08-21T03:58:18;8.77;;;3.65;;
26335;SDS011;14047;50.936;4.654;2022-08-21T04:00:49;7.90;;;3.35;;
26335;SDS011;14047;50.936;4.654;2022-08-21T04:03:17;13.80;;;4.13;;
26335;SDS011;14047;50.936;4.654;2022-08-21T04:05:43;12.88;;;3.83;;
26335;SDS011;14047;50.936;4.654;2022-08-21T04:08:10;12.20;;;3.80;;
26335;SDS011;14047;50.936;4.654;2022-08-21T04:10:37;7.75;;;3.50;;
26335;SDS011;14047;50.936;4.654;2022-08-21T04:13:04;6.63;;;3.38;;
26335;SDS011;14047;50.936;4.654;2022-08-21T04:15:30;7.07;;;3.58;;
26335;SDS011;14047;50.936;4.654;2022-08-21T04:17:56;8.85;;;3.38;;
26335;SDS011;14047;50.936;4.654;2022-08-21T04:20:22;7.95;;;3.55;;
26335;SDS011;14047;50.936;4.654;2022-08-21T04:22:50;15.30;;;3.78;;
26335;SDS011;14047;50.936;4.654;2022-08-21T04:25:16;8.27;;;3.47;;
26335;SDS011;14047;50.936;4.654;2022-08-21T04:27:43;14.77;;;3.80;;
26335;SDS011;14047;50.936;4.654;2022-08-21T04:30:10;15.20;;;3.60;;
26335;SDS011;14047;50.936;4.654;2022-08-21T04:32:37;15.02;;;3.78;;
26335;SDS011;14047;50.936;4.654;2022-08-21T04:35:05;11.07;;;3.70;;
26335;SDS011;14047;50.936;4.654;2022-08-21T04:37:34;9.68;;;3.50;;
26335;SDS011;14047;50.936;4.654;2022-08-21T04:40:00;10.52;;;3.20;;
26335;SDS011;14047;50.936;4.654;2022-08-21T04:42:27;18.00;;;4.15;;
26335;SDS011;14047;50.936;4.654;2022-08-21T04:44:54;13.23;;;3.40;;
26335;SDS011;14047;50.936;4.654;2022-08-21T04:47:21;10.75;;;3.53;;
26335;SDS011;14047;50.936;4.654;2022-08-21T04:49:47;14.23;;;3.90;;
26335;SDS011;14047;50.936;4.654;2022-08-21T04:52:13;15.50;;;4.28;;
26335;SDS011;14047;50.936;4.654;2022-08-21T04:54:44;12.50;;;3.90;;
26335;SDS011;14047;50.936;4.654;2022-08-21T04:57:11;11.90;;;3.65;;
26335;SDS011;14047;50.936;4.654;2022-08-21T04:59:41;13.07;;;3.75;;
26335;SDS011;14047;50.936;4.654;2022-08-21T05:02:10;11.07;;;3.13;;
26335;SDS011;14047;50.936;4.654;2022-08-21T05:04:40;15.35;;;3.80;;
26335;SDS011;14047;50.936;4.654;2022-08-21T05:07:14;13.32;;;3.83;;
26335;SDS011;14047;50.936;4.654;2022-08-21T05:09:43;8.43;;;3.40;;
26335;SDS011;14047;50.936;4.654;2022-08-21T05:12:09;8.30;;;3.20;;
26335;SDS011;14047;50.936;4.654;2022-08-21T05:14:35;7.72;;;3.08;;
26335;SDS011;14047;50.936;4.654;2022-08-21T05:17:01;7.35;;;3.47;;
26335;SDS011;14047;50.936;4.654;2022-08-21T05:19:27;10.02;;;3.60;;
26335;SDS011;14047;50.936;4.654;2022-08-21T05:21:52;8.95;;;3.38;;
26335;SDS011;14047;50.936;4.654;2022-08-21T05:24:18;11.05;;;3.30;;
26335;SDS011;14047;50.936;4.654;2022-08-21T05:26:44;12.40;;;3.45;;
26335;SDS011;14047;50.936;4.654;2022-08-21T05:29:10;5.93;;;3.40;;
26335;SDS011;14047;50.936;4.654;2022-08-21T05:31:37;15.05;;;3.55;;
26335;SDS011;14047;50.936;4.654;2022-08-21T05:34:03;9.40;;;3.42;;
26335;SDS011;14047;50.936;4.654;2022-08-21T05:36:29;10.45;;;3.00;;
26335;SDS011;14047;50.936;4.654;2022-08-21T05:38:55;5.97;;;2.80;;
26335;SDS011;14047;50.936;4.654;2022-08-21T05:41:20;10.20;;;3.13;;
26335;SDS011;14047;50.936;4.654;2022-08-21T05:43:46;8.27;;;3.05;;
26335;SDS011;14047;50.936;4.654;2022-08-21T05:46:12;10.23;;;3.00;;
26335;SDS011;14047;50.936;4.654;2022-08-21T05:48:37;9.75;;;2.67;;
26335;SDS011;14047;50.936;4.654;2022-08-21T05:51:04;12.18;;;3.22;;
26335;SDS011;14047;50.936;4.654;2022-08-21T05:53:32;10.10;;;3.33;;
26335;SDS011;14047;50.936;4.654;2022-08-21T05:55:58;16.48;;;2.75;;
26335;SDS011;14047;50.936;4.654;2022-08-21T05:58:23;10.02;;;2.92;;
26335;SDS011;14047;50.936;4.654;2022-08-21T06:00:49;12.85;;;2.92;;
26335;SDS011;14047;50.936;4.654;2022-08-21T06:03:20;11.50;;;2.72;;
26335;SDS011;14047;50.936;4.654;2022-08-21T06:05:48;13.23;;;3.10;;
26335;SDS011;14047;50.936;4.654;2022-08-21T06:08:14;13.30;;;2.65;;
26335;SDS011;14047;50.936;4.654;2022-08-21T06:10:41;8.05;;;2.40;;
26335;SDS011;14047;50.936;4.654;2022-08-21T06:13:07;10.48;;;3.13;;
26335;SDS011;14047;50.936;4.654;2022-08-21T06:15:33;8.40;;;2.60;;
26335;SDS011;14047;50.936;4.654;2022-08-21T06:17:59;13.90;;;3.13;;
26335;SDS011;14047;50.936;4.654;2022-08-21T06:20:25;11.00;;;2.72;;
26335;SDS011;14047;50.936;4.654;2022-08-21T06:22:51;8.55;;;2.63;;
26335;SDS011;14047;50.936;4.654;2022-08-21T06:25:16;11.95;;;2.45;;
26335;SDS011;14047;50.936;4.654;2022-08-21T06:27:43;10.57;;;1.77;;
26335;SDS011;14047;50.936;4.654;2022-08-21T06:30:09;9.30;;;2.13;;
26335;SDS011;14047;50.936;4.654;2022-08-21T06:32:35;14.18;;;2.83;;
26335;SDS011;14047;50.936;4.654;2022-08-21T06:35:01;10.32;;;1.70;;
26335;SDS011;14047;50.936;4.654;2022-08-21T06:37:28;9.85;;;1.77;;
26335;SDS011;14047;50.936;4.654;2022-08-21T06:39:54;10.30;;;1.90;;
26335;SDS011;14047;50.936;4.654;2022-08-21T06:42:19;7.22;;;1.25;;
26335;SDS011;14047;50.936;4.654;2022-08-21T06:44:45;5.82;;;1.52;;
26335;SDS011;14047;50.936;4.654;2022-08-21T06:47:12;6.40;;;1.80;;
26335;SDS011;14047;50.936;4.654;2022-08-21T06:49:38;6.82;;;1.65;;
26335;SDS011;14047;50.936;4.654;2022-08-21T06:52:08;6.65;;;1.40;;
26335;SDS011;14047;50.936;4.654;2022-08-21T06:54:35;6.80;;;1.50;;
26335;SDS011;14047;50.936;4.654;2022-08-21T06:57:00;7.97;;;1.40;;
26335;SDS011;14047;50.936;4.654;2022-08-21T06:59:26;3.97;;;1.23;;
26335;SDS011;14047;50.936;4.654;2022-08-21T07:01:52;6.93;;;1.42;;
26335;SDS011;14047;50.936;4.654;2022-08-21T07:04:17;8.23;;;1.80;;
26335;SDS011;14047;50.936;4.654;2022-08-21T07:06:43;9.82;;;2.05;;
26335;SDS011;14047;50.936;4.654;2022-08-21T07:09:09;7.90;;;2.33;;
26335;SDS011;14047;50.936;4.654;2022-08-21T07:11:35;9.40;;;2.00;;
26335;SDS011;14047;50.936;4.654;2022-08-21T07:14:02;8.77;;;1.92;;
26335;SDS011;14047;50.936;4.654;2022-08-21T07:16:28;8.82;;;1.70;;
26335;SDS011;14047;50.936;4.654;2022-08-21T07:18:54;6.65;;;1.30;;
26335;SDS011;14047;50.936;4.654;2022-08-21T07:21:20;8.95;;;1.70;;
26335;SDS011;14047;50.936;4.654;2022-08-21T07:23:48;11.32;;;1.90;;
26335;SDS011;14047;50.936;4.654;2022-08-21T07:26:16;10.00;;;2.25;;
26335;SDS011;14047;50.936;4.654;2022-08-21T07:28:45;11.45;;;1.92;;
26335;SDS011;14047;50.936;4.654;2022-08-21T07:31:12;6.00;;;1.20;;
26335;SDS011;14047;50.936;4.654;2022-08-21T07:33:40;4.55;;;1.13;;
26335;SDS011;14047;50.936;4.654;2022-08-21T07:36:06;10.70;;;1.83;;
26335;SDS011;14047;50.936;4.654;2022-08-21T07:38:32;7.85;;;1.73;;
26335;SDS011;14047;50.936;4.654;2022-08-21T07:40:59;18.45;;;2.05;;
26335;SDS011;14047;50.936;4.654;2022-08-21T07:43:26;8.93;;;1.90;;
26335;SDS011;14047;50.936;4.654;2022-08-21T07:45:52;9.95;;;1.50;;
26335;SDS011;14047;50.936;4.654;2022-08-21T07:48:19;3.55;;;1.10;;
26335;SDS011;14047;50.936;4.654;2022-08-21T07:50:46;8.65;;;2.17;;
26335;SDS011;14047;50.936;4.654;2022-08-21T07:53:12;6.72;;;1.05;;
26335;SDS011;14047;50.936;4.654;2022-08-21T07:55:38;8.00;;;1.50;;
26335;SDS011;14047;50.936;4.654;2022-08-21T07:58:03;9.10;;;1.73;;
26335;SDS011;14047;50.936;4.654;2022-08-21T08:00:29;5.95;;;1.35;;
26335;SDS011;14047;50.936;4.654;2022-08-21T08:02:55;8.80;;;1.98;;
26335;SDS011;14047;50.936;4.654;2022-08-21T08:05:23;6.03;;;1.38;;
26335;SDS011;14047;50.936;4.654;2022-08-21T08:07:51;9.02;;;1.50;;
26335;SDS011;14047;50.936;4.654;2022-08-21T08:10:17;10.05;;;1.67;;
26335;SDS011;14047;50.936;4.654;2022-08-21T08:12:43;11.18;;;2.22;;
26335;SDS011;14047;50.936;4.654;2022-08-21T08:15:20;8.48;;;1.60;;
26335;SDS011;14047;50.936;4.654;2022-08-21T08:17:49;5.75;;;1.15;;
26335;SDS011;14047;50.936;4.654;2022-08-21T08:20:15;5.72;;;1.02;;
26335;SDS011;14047;50.936;4.654;2022-08-21T08:22:43;8.57;;;1.70;;
26335;SDS011;14047;50.936;4.654;2022-08-21T08:25:10;7.45;;;1.30;;
26335;SDS011;14047;50.936;4.654;2022-08-21T08:27:37;8.60;;;1.38;;
26335;SDS011;14047;50.936;4.654;2022-08-21T08:30:04;7.30;;;1.83;;
26335;SDS011;14047;50.936;4.654;2022-08-21T08:32:31;5.57;;;1.25;;
26335;SDS011;14047;50.936;4.654;2022-08-21T08:34:56;9.90;;;1.50;;
26335;SDS011;14047;50.936;4.654;2022-08-21T08:37:22;6.43;;;1.23;;
26335;SDS011;14047;50.936;4.654;2022-08-21T08:39:48;6.80;;;1.58;;
26335;SDS011;14047;50.936;4.654;2022-08-21T08:42:28;3.83;;;1.08;;
26335;SDS011;14047;50.936;4.654;2022-08-21T08:45:04;6.38;;;1.25;;
26335;SDS011;14047;50.936;4.654;2022-08-21T08:47:37;7.20;;;1.58;;
26335;SDS011;14047;50.936;4.654;2022-08-21T08:50:08;12.70;;;1.55;;
26335;SDS011;14047;50.936;4.654;2022-08-21T08:52:59;7.40;;;1.38;;
26335;SDS011;14047;50.936;4.654;2022-08-21T08:58:00;7.22;;;1.30;;
26335;SDS011;14047;50.936;4.654;2022-08-21T09:00:27;6.07;;;1.35;;
26335;SDS011;14047;50.936;4.654;2022-08-21T09:02:54;10.07;;;1.75;;
26335;SDS011;14047;50.936;4.654;2022-08-21T09:05:58;14.15;;;1.70;;
26335;SDS011;14047;50.936;4.654;2022-08-21T09:08:32;8.10;;;1.80;;
26335;SDS011;14047;50.936;4.654;2022-08-21T09:11:37;9.00;;;1.23;;
26335;SDS011;14047;50.936;4.654;2022-08-21T09:22:36;10.18;;;2.40;;
26335;SDS011;14047;50.936;4.654;2022-08-21T09:25:25;8.65;;;1.27;;
26335;SDS011;14047;50.936;4.654;2022-08-21T09:27:54;9.55;;;1.38;;
26335;SDS011;14047;50.936;4.654;2022-08-21T09:30:28;6.43;;;1.70;;
26335;SDS011;14047;50.936;4.654;2022-08-21T09:32:57;8.48;;;1.90;;
26335;SDS011;14047;50.936;4.654;2022-08-21T09:35:23;9.57;;;1.30;;
26335;SDS011;14047;50.936;4.654;2022-08-21T09:37:51;4.88;;;1.40;;
26335;SDS011;14047;50.936;4.654;2022-08-21T09:45:28;8.73;;;1.40;;
26335;SDS011;14047;50.936;4.654;2022-08-21T09:47:55;12.43;;;1.58;;
26335;SDS011;14047;50.936;4.654;2022-08-21T09:50:25;5.53;;;1.58;;
26335;SDS011;14047;50.936;4.654;2022-08-21T09:52:56;9.95;;;2.38;;
26335;SDS011;14047;50.936;4.654;2022-08-21T09:55:52;6.70;;;1.27;;
26335;SDS011;14047;50.936;4.654;2022-08-21T09:58:42;8.25;;;1.38;;
26335;SDS011;14047;50.936;4.654;2022-08-21T10:01:21;9.57;;;1.40;;
26335;SDS011;14047;50.936;4.654;2022-08-21T10:03:48;9.10;;;1.85;;
26335;SDS011;14047;50.936;4.654;2022-08-21T10:06:27;4.07;;;1.20;;
26335;SDS011;14047;50.936;4.654;2022-08-21T10:09:06;9.65;;;1.70;;
26335;SDS011;14047;50.936;4.654;2022-08-21T10:11:35;8.80;;;1.45;;
26335;SDS011;14047;50.936;4.654;2022-08-21T10:33:42;10.73;;;1.90;;
26335;SDS011;14047;50.936;4.654;2022-08-21T10:36:27;9.05;;;1.50;;
26335;SDS011;14047;50.936;4.654;2022-08-21T10:47:16;7.97;;;1.30;;
26335;SDS011;14047;50.936;4.654;2022-08-21T10:53:01;5.85;;;1.45;;
26335;SDS011;14047;50.936;4.654;2022-08-21T10:55:59;13.07;;;2.65;;
26335;SDS011;14047;50.936;4.654;2022-08-21T10:59:31;8.38;;;1.70;;
26335;SDS011;14047;50.936;4.654;2022-08-21T11:01:33;8.57;;;1.58;;
26335;SDS011;14047;50.936;4.654;2022-08-21T11:10:22;11.18;;;1.67;;
26335;SDS011;14047;50.936;4.654;2022-08-21T11:13:03;6.90;;;1.48;;
26335;SDS011;14047;50.936;4.654;2022-08-21T11:15:37;7.97;;;1.40;;
26335;SDS011;14047;50.936;4.654;2022-08-21T11:23:53;4.57;;;1.13;;
26335;SDS011;14047;50.936;4.654;2022-08-21T11:29:21;8.45;;;1.77;;
26335;SDS011;14047;50.936;4.654;2022-08-21T11:37:49;8.48;;;1.75;;
26335;SDS011;14047;50.936;4.654;2022-08-21T11:48:08;9.95;;;1.55;;
26335;SDS011;14047;50.936;4.654;2022-08-21T11:50:48;8.95;;;1.55;;
26335;SDS011;14047;50.936;4.654;2022-08-21T11:56:25;11.50;;;1.50;;
26335;SDS011;14047;50.936;4.654;2022-08-21T11:58:51;11.77;;;1.60;;
26335;SDS011;14047;50.936;4.654;2022-08-21T12:01:22;7.10;;;1.52;;
26335;SDS011;14047;50.936;4.654;2022-08-21T12:03:56;7.28;;;1.70;;
26335;SDS011;14047;50.936;4.654;2022-08-21T12:06:30;6.93;;;1.42;;
26335;SDS011;14047;50.936;4.654;2022-08-21T12:09:51;8.65;;;1.70;;
26335;SDS011;14047;50.936;4.654;2022-08-21T12:11:51;8.07;;;1.52;;
26335;SDS011;14047;50.936;4.654;2022-08-21T12:14:48;6.53;;;1.70;;
26335;SDS011;14047;50.936;4.654;2022-08-21T12:17:19;10.82;;;1.60;;
26335;SDS011;14047;50.936;4.654;2022-08-21T12:19:57;7.70;;;1.65;;
26335;SDS011;14047;50.936;4.654;2022-08-21T12:22:39;5.85;;;1.50;;
26335;SDS011;14047;50.936;4.654;2022-08-21T12:25:10;7.72;;;1.67;;
26335;SDS011;14047;50.936;4.654;2022-08-21T12:27:44;5.57;;;1.33;;
26335;SDS011;14047;50.936;4.654;2022-08-21T12:30:21;8.93;;;1.48;;
26335;SDS011;14047;50.936;4.654;2022-08-21T12:33:04;9.82;;;1.60;;
26335;SDS011;14047;50.936;4.654;2022-08-21T12:35:44;7.70;;;1.55;;
26335;SDS011;14047;50.936;4.654;2022-08-21T12:38:18;10.23;;;2.45;;
26335;SDS011;14047;50.936;4.654;2022-08-21T12:41:04;7.80;;;1.80;;
26335;SDS011;14047;50.936;4.654;2022-08-21T12:43:38;7.88;;;1.55;;
26335;SDS011;14047;50.936;4.654;2022-08-21T12:46:16;7.72;;;1.40;;
26335;SDS011;14047;50.936;4.654;2022-08-21T12:51:29;13.35;;;1.80;;
26335;SDS011;14047;50.936;4.654;2022-08-21T12:54:21;4.57;;;1.20;;
26335;SDS011;14047;50.936;4.654;2022-08-21T12:56:57;7.22;;;1.50;;
26335;SDS011;14047;50.936;4.654;2022-08-21T12:59:25;10.98;;;2.40;;
26335;SDS011;14047;50.936;4.654;2022-08-21T13:01:52;4.85;;;1.23;;
26335;SDS011;14047;50.936;4.654;2022-08-21T13:04:21;9.70;;;1.50;;
26335;SDS011;14047;50.936;4.654;2022-08-21T13:06:52;7.60;;;1.52;;
26335;SDS011;14047;50.936;4.654;2022-08-21T13:09:20;8.38;;;1.30;;
26335;SDS011;14047;50.936;4.654;2022-08-21T13:11:51;7.03;;;1.50;;
26335;SDS011;14047;50.936;4.654;2022-08-21T13:14:23;12.52;;;2.25;;
26335;SDS011;14047;50.936;4.654;2022-08-21T13:16:57;14.25;;;2.17;;
26335;SDS011;14047;50.936;4.654;2022-08-21T13:19:24;6.68;;;1.60;;
26335;SDS011;14047;50.936;4.654;2022-08-21T13:21:51;7.13;;;1.58;;
26335;SDS011;14047;50.936;4.654;2022-08-21T13:26:45;9.27;;;1.70;;
26335;SDS011;14047;50.936;4.654;2022-08-21T13:29:14;11.65;;;1.45;;
26335;SDS011;14047;50.936;4.654;2022-08-21T13:31:46;5.30;;;1.80;;
26335;SDS011;14047;50.936;4.654;2022-08-21T13:34:24;6.70;;;1.48;;
26335;SDS011;14047;50.936;4.654;2022-08-21T13:37:00;8.73;;;1.70;;
26335;SDS011;14047;50.936;4.654;2022-08-21T13:39:29;7.82;;;1.25;;
26335;SDS011;14047;50.936;4.654;2022-08-21T13:41:57;5.28;;;1.33;;
26335;SDS011;14047;50.936;4.654;2022-08-21T13:47:07;6.15;;;1.55;;
26335;SDS011;14047;50.936;4.654;2022-08-21T13:49:37;12.43;;;1.55;;
26335;SDS011;14047;50.936;4.654;2022-08-21T13:52:22;9.25;;;2.03;;
26335;SDS011;14047;50.936;4.654;2022-08-21T13:54:55;8.70;;;1.67;;
26335;SDS011;14047;50.936;4.654;2022-08-21T13:57:33;8.55;;;1.40;;
26335;SDS011;14047;50.936;4.654;2022-08-21T14:02:50;12.00;;;1.88;;
26335;SDS011;14047;50.936;4.654;2022-08-21T14:05:22;7.10;;;1.27;;
26335;SDS011;14047;50.936;4.654;2022-08-21T14:07:51;11.15;;;1.83;;
26335;SDS011;14047;50.936;4.654;2022-08-21T14:10:27;8.93;;;1.60;;
26335;SDS011;14047;50.936;4.654;2022-08-21T14:12:58;9.90;;;1.80;;
26335;SDS011;14047;50.936;4.654;2022-08-21T14:15:27;9.82;;;1.20;;
26335;SDS011;14047;50.936;4.654;2022-08-21T14:18:09;9.40;;;1.80;;
26335;SDS011;14047;50.936;4.654;2022-08-21T14:20:39;6.30;;;1.40;;
26335;SDS011;14047;50.936;4.654;2022-08-21T14:23:05;8.32;;;1.77;;
26335;SDS011;14047;50.936;4.654;2022-08-21T14:25:37;6.50;;;1.45;;
26335;SDS011;14047;50.936;4.654;2022-08-21T14:28:23;7.38;;;1.90;;
26335;SDS011;14047;50.936;4.654;2022-08-21T14:30:52;7.90;;;1.40;;
26335;SDS011;14047;50.936;4.654;2022-08-21T14:33:21;7.15;;;1.55;;
26335;SDS011;14047;50.936;4.654;2022-08-21T14:35:57;6.80;;;1.35;;
26335;SDS011;14047;50.936;4.654;2022-08-21T14:38:24;6.40;;;1.45;;
26335;SDS011;14047;50.936;4.654;2022-08-21T14:40:53;9.50;;;1.58;;
26335;SDS011;14047;50.936;4.654;2022-08-21T14:43:21;10.68;;;1.90;;
26335;SDS011;14047;50.936;4.654;2022-08-21T14:45:47;6.80;;;1.20;;
26335;SDS011;14047;50.936;4.654;2022-08-21T14:48:13;8.23;;;1.40;;
26335;SDS011;14047;50.936;4.654;2022-08-21T14:50:39;8.30;;;1.42;;
26335;SDS011;14047;50.936;4.654;2022-08-21T14:53:05;7.13;;;1.35;;
26335;SDS011;14047;50.936;4.654;2022-08-21T14:55:31;7.97;;;1.20;;
26335;SDS011;14047;50.936;4.654;2022-08-21T14:58:20;6.72;;;1.58;;
26335;SDS011;14047;50.936;4.654;2022-08-21T15:00:47;10.90;;;1.27;;
26335;SDS011;14047;50.936;4.654;2022-08-21T15:03:14;8.02;;;1.65;;
26335;SDS011;14047;50.936;4.654;2022-08-21T15:05:40;8.82;;;1.55;;
26335;SDS011;14047;50.936;4.654;2022-08-21T15:08:06;5.28;;;1.10;;
26335;SDS011;14047;50.936;4.654;2022-08-21T15:10:32;8.30;;;1.73;;
26335;SDS011;14047;50.936;4.654;2022-08-21T15:12:58;4.65;;;1.38;;
26335;SDS011;14047;50.936;4.654;2022-08-21T15:15:25;6.57;;;1.60;;
26335;SDS011;14047;50.936;4.654;2022-08-21T15:17:50;5.97;;;1.48;;
26335;SDS011;14047;50.936;4.654;2022-08-21T15:20:16;8.48;;;1.63;;
26335;SDS011;14047;50.936;4.654;2022-08-21T15:22:42;6.20;;;1.50;;
26335;SDS011;14047;50.936;4.654;2022-08-21T15:25:07;9.00;;;1.73;;
26335;SDS011;14047;50.936;4.654;2022-08-21T15:27:34;6.50;;;1.33;;
26335;SDS011;14047;50.936;4.654;2022-08-21T15:30:00;5.72;;;1.35;;
26335;SDS011;14047;50.936;4.654;2022-08-21T15:32:27;7.40;;;1.73;;
26335;SDS011;14047;50.936;4.654;2022-08-21T15:34:55;9.82;;;1.67;;
26335;SDS011;14047;50.936;4.654;2022-08-21T15:37:23;6.55;;;1.67;;
26335;SDS011;14047;50.936;4.654;2022-08-21T15:39:50;11.85;;;1.63;;
26335;SDS011;14047;50.936;4.654;2022-08-21T15:42:16;7.03;;;1.60;;
26335;SDS011;14047;50.936;4.654;2022-08-21T15:44:43;10.30;;;1.90;;
26335;SDS011;14047;50.936;4.654;2022-08-21T15:47:11;6.40;;;1.50;;
26335;SDS011;14047;50.936;4.654;2022-08-21T15:49:39;8.30;;;1.30;;
26335;SDS011;14047;50.936;4.654;2022-08-21T15:52:09;6.00;;;1.27;;
26335;SDS011;14047;50.936;4.654;2022-08-21T15:54:36;7.22;;;1.10;;
26335;SDS011;14047;50.936;4.654;2022-08-21T15:57:02;10.18;;;1.73;;
26335;SDS011;14047;50.936;4.654;2022-08-21T15:59:27;7.85;;;1.40;;
26335;SDS011;14047;50.936;4.654;2022-08-21T16:02:04;5.88;;;1.17;;
26335;SDS011;14047;50.936;4.654;2022-08-21T16:04:32;10.50;;;2.00;;
26335;SDS011;14047;50.936;4.654;2022-08-21T16:06:58;7.75;;;1.70;;
26335;SDS011;14047;50.936;4.654;2022-08-21T16:09:23;9.77;;;1.40;;
26335;SDS011;14047;50.936;4.654;2022-08-21T16:11:49;8.07;;;1.48;;
26335;SDS011;14047;50.936;4.654;2022-08-21T16:14:15;6.78;;;1.52;;
26335;SDS011;14047;50.936;4.654;2022-08-21T16:16:42;6.32;;;1.80;;
26335;SDS011;14047;50.936;4.654;2022-08-21T16:19:08;7.53;;;1.70;;
26335;SDS011;14047;50.936;4.654;2022-08-21T16:21:35;5.60;;;1.60;;
26335;SDS011;14047;50.936;4.654;2022-08-21T16:24:01;12.80;;;2.55;;